createdAt,value
2022-08-18T00:03:15.868Z,18.20
2022-08-18T00:06:46.103Z,18.16
2022-08-18T00:10:42.224Z,18.14
2022-08-18T00:14:03.965Z,18.12
2022-08-18T00:17:40.797Z,18.12
2022-08-18T00:21:36.428Z,18.11
2022-08-18T00:25:19.181Z,18.07
2022-08-18T00:28:40.588Z,18.02
2022-08-18T00:32:26.623Z,17.97
2022-08-18T00:35:54.775Z,17.93
2022-08-18T00:39:52.644Z,17.95
2022-08-18T00:43:40.602Z,17.93
2022-08-18T00:47:03.851Z,17.87
2022-08-18T00:50:51.979Z,17.80
2022-08-18T00:54:30.739Z,17.72
2022-08-18T00:58:03.711Z,17.67
2022-08-18T01:01:33.280Z,17.63
2022-08-18T01:05:30.592Z,17.65
2022-08-18T01:08:52.419Z,17.66
2022-08-18T01:12:46.265Z,17.62
2022-08-18T01:16:28.070Z,17.54
2022-08-18T01:20:09.857Z,17.46
2022-08-18T01:23:53.654Z,17.44
2022-08-18T01:27:18.706Z,17.45
2022-08-18T01:30:58.160Z,17.45
2022-08-18T01:34:28.871Z,17.39
2022-08-18T01:38:05.947Z,17.34
2022-08-18T01:41:42.589Z,17.30
2022-08-18T01:45:20.743Z,17.29
2022-08-18T01:48:58.579Z,17.28
2022-08-18T01:52:34.185Z,17.29
2022-08-18T01:56:28.661Z,17.29
2022-08-18T01:59:51.591Z,17.25
2022-08-18T02:03:42.606Z,17.19
2022-08-18T02:07:23.860Z,17.22
2022-08-18T02:10:58.914Z,17.26
2022-08-18T02:14:52.549Z,17.27
2022-08-18T02:18:47.063Z,17.26
2022-08-18T02:22:03.101Z,17.22
2022-08-18T02:25:57.869Z,17.18
2022-08-18T02:29:19.815Z,17.11
2022-08-18T02:32:59.094Z,17.03
2022-08-18T02:36:33.428Z,16.96
2022-08-18T02:40:14.953Z,16.92
2022-08-18T02:44:07.801Z,16.93
2022-08-18T02:47:56.039Z,16.93
2022-08-18T02:51:18.349Z,16.92
2022-08-18T02:54:54.460Z,16.96
2022-08-18T02:58:33.626Z,16.96
2022-08-18T03:02:26.679Z,16.94
2022-08-18T03:05:48.054Z,17.00
2022-08-18T03:09:25.149Z,16.99
2022-08-18T03:13:03.966Z,17.00
2022-08-18T03:16:52.820Z,17.01
2022-08-18T03:20:36.030Z,16.96
2022-08-18T03:24:01.000Z,16.90
2022-08-18T03:27:55.150Z,16.89
2022-08-18T03:31:19.168Z,16.90
2022-08-18T03:34:54.255Z,16.89
2022-08-18T03:38:30.600Z,16.86
2022-08-18T03:42:07.284Z,16.78
2022-08-18T03:45:43.986Z,16.71
2022-08-18T03:49:22.848Z,16.66
2022-08-18T03:52:59.579Z,16.68
2022-08-18T03:56:38.356Z,16.69
2022-08-18T04:00:12.665Z,16.72
2022-08-18T04:03:51.388Z,16.69
2022-08-18T04:07:24.947Z,16.62
2022-08-18T04:11:20.530Z,16.59
2022-08-18T04:14:46.521Z,16.60
2022-08-18T04:18:19.606Z,16.65
2022-08-18T04:21:58.163Z,16.76
2022-08-18T04:25:59.292Z,16.82
2022-08-18T04:29:21.497Z,16.87
2022-08-18T04:33:16.319Z,16.93
2022-08-18T04:36:37.640Z,17.02
2022-08-18T04:40:14.882Z,17.13
2022-08-18T04:44:12.127Z,17.22
2022-08-18T04:47:36.129Z,17.31
2022-08-18T04:51:13.180Z,17.37
2022-08-18T04:54:55.354Z,17.48
2022-08-18T04:58:56.555Z,17.58
2022-08-18T05:02:19.622Z,17.79
2022-08-18T05:06:00.478Z,17.92
2022-08-18T05:09:54.427Z,18.03
2022-08-18T05:13:17.728Z,18.19
2022-08-18T05:16:52.998Z,18.37
2022-08-18T05:20:48.917Z,18.54
2022-08-18T05:24:10.917Z,18.74
2022-08-18T05:28:06.504Z,18.95
2022-08-18T05:31:29.275Z,19.14
2022-08-18T05:35:10.502Z,19.34
2022-08-18T05:39:12.354Z,19.58
2022-08-18T05:42:39.612Z,19.79
2022-08-18T05:46:11.584Z,19.98
2022-08-18T05:49:49.346Z,20.15
2022-08-18T05:54:02.704Z,20.33
2022-08-18T05:58:06.847Z,20.50
2022-08-18T06:01:38.871Z,20.65
2022-08-18T06:05:37.641Z,20.81
2022-08-18T06:09:04.311Z,21.00
2022-08-18T06:12:46.903Z,21.13
2022-08-18T06:16:26.595Z,21.28
2022-08-18T06:20:53.113Z,21.40
2022-08-18T06:24:45.778Z,21.57
2022-08-18T06:28:38.114Z,21.72
2022-08-18T06:32:37.033Z,21.87
2022-08-18T06:36:27.542Z,22.02
2022-08-18T06:40:08.474Z,22.16
2022-08-18T06:44:05.762Z,22.30
2022-08-18T06:47:44.683Z,22.44
2022-08-18T06:51:09.170Z,22.56
2022-08-18T06:55:15.378Z,22.68
2022-08-18T06:58:36.606Z,22.81
2022-08-18T07:02:48.501Z,22.90
2022-08-18T07:06:22.753Z,23.00
2022-08-18T07:09:48.442Z,23.12
2022-08-18T07:13:30.192Z,23.23
2022-08-18T07:17:13.055Z,23.32
2022-08-18T07:20:45.911Z,23.41
2022-08-18T07:24:48.679Z,23.51
2022-08-18T07:28:28.456Z,23.64
2022-08-18T07:31:54.197Z,23.75
2022-08-18T07:35:56.169Z,23.84
2022-08-18T07:39:34.863Z,23.97
2022-08-18T07:43:03.436Z,24.11
2022-08-18T07:46:50.632Z,24.24
2022-08-18T07:50:27.235Z,24.33
2022-08-18T07:54:49.258Z,24.43
2022-08-18T07:58:47.104Z,24.59
2022-08-18T08:02:36.467Z,24.70
2022-08-18T08:06:13.326Z,24.81
2022-08-18T08:09:55.913Z,24.93
2022-08-18T08:13:51.292Z,25.05
2022-08-18T08:17:19.519Z,25.17
2022-08-18T08:20:52.734Z,25.28
2022-08-18T08:24:56.076Z,25.43
2022-08-18T08:28:38.012Z,25.55
2022-08-18T08:32:03.291Z,25.71
2022-08-18T08:35:57.126Z,25.81
2022-08-18T08:39:26.920Z,25.89
2022-08-18T08:43:04.354Z,25.92
2022-08-18T08:46:46.862Z,26.12
2022-08-18T08:50:32.572Z,26.28
2022-08-18T08:54:10.440Z,26.44
2022-08-18T08:58:01.625Z,26.57
2022-08-18T09:02:22.654Z,26.75
2022-08-18T09:06:24.289Z,26.82
2022-08-18T09:10:08.137Z,26.94
2022-08-18T09:13:29.761Z,27.03
2022-08-18T09:17:46.929Z,27.16
2022-08-18T09:21:28.875Z,27.36
2022-08-18T09:24:54.911Z,27.45
2022-08-18T09:28:30.679Z,27.57
2022-08-18T09:32:23.947Z,27.57
2022-08-18T09:36:15.249Z,27.56
2022-08-18T09:40:19.486Z,27.59
2022-08-18T09:43:54.614Z,27.64
2022-08-18T09:47:24.487Z,27.84
2022-08-18T09:51:20.885Z,28.07
2022-08-18T09:55:18.112Z,28.05
2022-08-18T09:59:01.740Z,28.01
2022-08-18T10:02:32.052Z,28.19
2022-08-18T10:06:20.781Z,28.31
2022-08-18T10:10:18.479Z,28.46
2022-08-18T10:13:52.641Z,28.58
2022-08-18T10:17:50.220Z,28.71
2022-08-18T10:21:22.760Z,28.83
2022-08-18T10:25:23.253Z,28.95
2022-08-18T10:29:10.521Z,29.01
2022-08-18T10:32:39.485Z,28.95
2022-08-18T10:36:11.244Z,29.03
2022-08-18T10:39:54.769Z,29.17
2022-08-18T10:43:55.519Z,29.38
2022-08-18T10:47:33.551Z,29.54
2022-08-18T10:51:04.546Z,29.55
2022-08-18T10:54:54.279Z,29.49
2022-08-18T10:58:23.997Z,29.60
2022-08-18T11:02:18.461Z,29.66
2022-08-18T11:05:43.003Z,29.59
2022-08-18T11:09:30.046Z,29.75
2022-08-18T11:13:35.000Z,30.01
2022-08-18T11:17:26.369Z,30.13
2022-08-18T11:20:48.412Z,30.20
2022-08-18T11:24:35.569Z,30.33
2022-08-18T11:28:14.358Z,30.47
2022-08-18T11:31:40.794Z,30.57
2022-08-18T11:35:50.021Z,30.35
2022-08-18T11:39:38.132Z,30.51
2022-08-18T11:43:11.791Z,30.67
2022-08-18T11:46:39.058Z,30.84
2022-08-18T11:50:14.037Z,31.07
2022-08-18T11:54:10.695Z,31.23
2022-08-18T11:57:54.070Z,31.42
2022-08-18T12:01:39.055Z,31.67
2022-08-18T12:08:59.562Z,31.94
2022-08-18T12:12:28.127Z,31.66
2022-08-18T12:16:17.744Z,31.88
2022-08-18T12:19:40.104Z,31.93
2022-08-18T12:27:25.413Z,32.21
2022-08-18T12:31:01.156Z,32.27
2022-08-18T12:34:37.785Z,32.29
2022-08-18T12:38:14.518Z,32.32
2022-08-18T12:41:51.109Z,32.37
2022-08-18T12:45:33.989Z,32.26
2022-08-18T12:53:06.390Z,32.48
2022-08-18T12:56:32.218Z,32.78
2022-08-18T13:00:05.387Z,33.06
2022-08-18T13:04:11.575Z,33.27
2022-08-18T13:07:35.119Z,33.12
2022-08-18T13:11:14.949Z,33.15
2022-08-18T13:15:08.997Z,33.39
2022-08-18T13:18:33.257Z,33.45
2022-08-18T13:22:09.584Z,33.52
2022-08-18T13:25:46.786Z,33.67
2022-08-18T13:29:23.308Z,33.75
2022-08-18T13:33:56.000Z,34.10
2022-08-18T13:37:02.926Z,34.45
2022-08-18T13:40:45.515Z,34.17
2022-08-18T13:44:19.681Z,33.97
2022-08-18T13:47:52.967Z,33.67
2022-08-18T13:51:30.046Z,33.65
2022-08-18T13:55:11.951Z,33.97
2022-08-18T13:58:53.193Z,34.25
2022-08-18T14:02:20.277Z,34.33
2022-08-18T14:06:01.776Z,34.46
2022-08-18T14:09:53.033Z,33.88
2022-08-18T14:13:20.763Z,33.84
2022-08-18T14:16:52.065Z,34.05
2022-08-18T14:20:48.337Z,34.42
2022-08-18T14:24:29.770Z,34.84
2022-08-18T14:28:11.919Z,35.18
2022-08-18T14:31:34.190Z,35.50
2022-08-18T14:35:33.140Z,35.64
2022-08-18T14:38:57.743Z,35.89
2022-08-18T14:42:41.685Z,36.17
2022-08-18T14:46:35.604Z,36.50
2022-08-18T14:50:16.336Z,36.77
2022-08-18T14:53:41.946Z,37.35
2022-08-18T15:00:56.730Z,37.18
2022-08-18T15:04:56.339Z,36.99
2022-08-18T15:11:58.539Z,37.06
2022-08-18T15:15:50.880Z,37.16
2022-08-18T15:19:59.253Z,37.29
2022-08-18T15:23:24.845Z,37.00
2022-08-18T15:27:05.693Z,36.65
2022-08-18T15:30:29.277Z,36.65
2022-08-18T15:34:05.873Z,36.62
2022-08-18T15:37:44.873Z,36.35
2022-08-18T15:41:49.429Z,36.04
2022-08-18T15:45:15.741Z,35.48
2022-08-18T15:49:09.560Z,35.08
2022-08-18T15:52:34.004Z,34.58
2022-08-18T15:56:30.935Z,34.08
2022-08-18T15:59:52.943Z,33.71
2022-08-18T16:03:31.785Z,33.38
2022-08-18T16:07:06.863Z,32.90
2022-08-18T16:10:46.632Z,32.38
2022-08-18T16:14:39.835Z,32.18
2022-08-18T16:18:01.230Z,31.89
2022-08-18T16:21:40.836Z,31.56
2022-08-18T16:25:16.695Z,31.44
2022-08-18T16:28:52.420Z,31.50
2022-08-18T16:32:29.091Z,31.56
2022-08-18T16:36:07.523Z,31.53
2022-08-18T16:40:01.143Z,31.50
2022-08-18T16:43:22.618Z,31.50
2022-08-18T16:47:01.755Z,31.51
2022-08-18T16:50:37.778Z,31.54
2022-08-18T16:54:14.388Z,31.50
2022-08-18T16:58:15.596Z,31.42
2022-08-18T17:01:57.456Z,31.40
2022-08-18T17:05:20.158Z,31.31
2022-08-18T17:08:57.108Z,31.08
2022-08-18T17:12:33.274Z,30.83
2022-08-18T17:16:11.992Z,30.37
2022-08-18T17:19:50.142Z,30.06
2022-08-18T17:23:23.845Z,29.74
2022-08-18T17:27:27.282Z,29.43
2022-08-18T17:30:54.820Z,29.20
2022-08-18T17:34:40.540Z,28.95
2022-08-18T17:38:15.194Z,28.67
2022-08-18T17:42:00.804Z,28.42
2022-08-18T17:45:23.347Z,28.21
2022-08-18T17:49:45.553Z,27.97
2022-08-18T17:53:10.074Z,27.58
2022-08-18T17:56:52.590Z,27.28
2022-08-18T18:00:21.787Z,27.00
2022-08-18T18:03:58.657Z,26.71
2022-08-18T18:07:53.425Z,26.40
2022-08-18T18:11:15.907Z,26.05
2022-08-18T18:14:52.855Z,25.70
2022-08-18T18:18:42.991Z,25.41
2022-08-18T18:22:23.882Z,25.13
2022-08-18T18:26:29.288Z,24.94
2022-08-18T18:30:16.489Z,24.76
2022-08-18T18:34:23.225Z,24.58
2022-08-18T18:37:55.240Z,24.38
2022-08-18T18:41:28.085Z,24.30
2022-08-18T18:45:09.516Z,24.18
2022-08-18T18:48:56.974Z,24.00
2022-08-18T18:52:53.123Z,23.93
2022-08-18T18:56:56.980Z,23.84
2022-08-18T19:00:37.571Z,23.68
2022-08-18T19:04:27.159Z,23.57
2022-08-18T19:07:48.814Z,23.48
2022-08-18T19:11:53.083Z,23.36
2022-08-18T19:15:17.355Z,23.28
2022-08-18T19:19:38.169Z,23.20
2022-08-18T19:22:59.635Z,23.10
2022-08-18T19:26:38.305Z,23.05
2022-08-18T19:30:12.771Z,23.02
2022-08-18T19:33:50.103Z,23.00
2022-08-18T19:37:33.028Z,22.99
2022-08-18T19:41:31.838Z,22.97
2022-08-18T19:45:17.166Z,22.94
2022-08-18T19:49:02.996Z,22.86
2022-08-18T19:52:46.348Z,22.80
2022-08-18T19:56:27.717Z,22.76
2022-08-18T20:00:10.326Z,22.71
2022-08-18T20:04:03.674Z,22.67
2022-08-18T20:08:05.835Z,22.57
2022-08-18T20:11:46.602Z,22.49
2022-08-18T20:15:31.285Z,22.46
2022-08-18T20:18:54.016Z,22.43
2022-08-18T20:22:39.736Z,22.41
2022-08-18T20:26:38.847Z,22.38
2022-08-18T20:30:20.168Z,22.35
2022-08-18T20:34:14.045Z,22.29
2022-08-18T20:37:36.401Z,22.23
2022-08-18T20:41:44.416Z,22.12
2022-08-18T20:45:13.249Z,22.04
2022-08-18T20:49:07.738Z,22.01
2022-08-18T20:52:45.158Z,21.97
2022-08-18T20:56:32.310Z,21.93
2022-08-18T21:00:21.358Z,21.88
2022-08-18T21:03:50.414Z,21.82
2022-08-18T21:08:15.615Z,21.76
2022-08-18T21:11:56.519Z,21.70
2022-08-18T21:15:18.063Z,21.67
2022-08-18T21:19:22.821Z,21.66
2022-08-18T21:22:45.820Z,21.63
2022-08-18T21:26:22.998Z,21.63
2022-08-18T21:30:07.718Z,21.59
2022-08-18T21:33:35.877Z,21.53
2022-08-18T21:37:14.170Z,21.51
2022-08-18T21:40:50.132Z,21.51
2022-08-18T21:44:42.763Z,21.52
2022-08-18T21:48:06.996Z,21.53
2022-08-18T21:51:47.460Z,21.50
2022-08-18T21:55:49.438Z,21.49
2022-08-18T21:59:20.884Z,21.47
2022-08-18T22:03:25.195Z,21.47
2022-08-18T22:06:50.914Z,21.45
2022-08-18T22:11:02.916Z,21.43
2022-08-18T22:14:54.573Z,21.43
2022-08-18T22:18:17.855Z,21.44
2022-08-18T22:22:00.524Z,21.43
2022-08-18T22:25:32.839Z,21.41
2022-08-18T22:29:45.660Z,21.39
2022-08-18T22:33:07.673Z,21.39
2022-08-18T22:36:48.158Z,21.41
2022-08-18T22:40:21.642Z,21.41
2022-08-18T22:44:17.492Z,21.43
2022-08-18T22:47:43.688Z,21.43
2022-08-18T22:51:39.993Z,21.43
2022-08-18T22:55:24.354Z,21.41
2022-08-18T22:59:16.032Z,21.42
2022-08-18T23:02:42.299Z,21.43
2022-08-18T23:06:37.479Z,21.42
2022-08-18T23:10:18.894Z,21.41
2022-08-18T23:13:41.279Z,21.37
2022-08-18T23:17:18.373Z,21.33
2022-08-18T23:21:00.160Z,21.29
2022-08-18T23:24:50.062Z,21.25
2022-08-18T23:28:13.334Z,21.22
2022-08-18T23:31:50.602Z,21.20
2022-08-18T23:35:46.086Z,21.19
2022-08-18T23:39:08.138Z,21.18
2022-08-18T23:42:44.677Z,21.13
2022-08-18T23:46:25.603Z,21.08
2022-08-18T23:49:58.547Z,21.04
2022-08-18T23:54:01.505Z,21.05
2022-08-18T23:57:44.541Z,21.06
